Time;durP1;ratioP1;P1;durP2;ratioP2;P2;SDS_P1;SDS_P2;PMS_P1;PMS_P2;Temp;Humidity;BMP_temperature;BMP_pressure;BME280_temperature;BME280_humidity;BME280_pressure;Samples;Min_cycle;Max_cycle;Signal;HPM_P1;HPM_P2
2023/05/18 00:02:14;;;;;;;8.10;1.85;;;;;;;;;;5013858;28;20025;-62
2023/05/18 00:04:40;;;;;;;7.50;1.73;;;;;;;;;;5032504;28;20116;-62
2023/05/18 00:07:06;;;;;;;6.47;1.67;;;;;;;;;;5033525;28;20056;-63
2023/05/18 00:09:33;;;;;;;3.25;1.58;;;;;;;;;;5033547;28;20037;-62
2023/05/18 00:12:00;;;;;;;9.55;1.70;;;;;;;;;;5033444;28;20021;-63
2023/05/18 00:14:26;;;;;;;6.43;1.75;;;;;;;;;;5033204;28;20036;-62
2023/05/18 00:16:52;;;;;;;8.40;1.88;;;;;;;;;;5033366;28;20044;-63
2023/05/18 00:19:19;;;;;;;8.55;2.03;;;;;;;;;;5033298;28;20041;-63
2023/05/18 00:21:46;;;;;;;6.35;1.52;;;;;;;;;;5033083;28;20025;-63
2023/05/18 00:24:12;;;;;;;7.80;2.13;;;;;;;;;;5033321;28;20341;-63
2023/05/18 00:26:39;;;;;;;10.07;2.20;;;;;;;;;;5033238;28;20025;-62
2023/05/18 00:29:05;;;;;;;7.57;1.80;;;;;;;;;;5032759;28;20545;-63
2023/05/18 00:31:35;;;;;;;7.80;2.10;;;;;;;;;;5033029;28;20159;-63
2023/05/18 00:34:06;;;;;;;9.45;2.42;;;;;;;;;;5033091;28;20030;-62
2023/05/18 00:36:32;;;;;;;13.73;3.28;;;;;;;;;;5032820;28;20026;-63
2023/05/18 00:38:58;;;;;;;14.57;3.85;;;;;;;;;;5032941;28;20549;-62
2023/05/18 00:41:25;;;;;;;13.20;4.72;;;;;;;;;;5032536;28;20029;-62
2023/05/18 00:43:51;;;;;;;33.60;9.52;;;;;;;;;;5032669;28;20045;-63
2023/05/18 00:46:16;;;;;;;29.63;9.52;;;;;;;;;;5032841;28;20022;-64
2023/05/18 00:48:42;;;;;;;21.52;7.20;;;;;;;;;;5032829;28;20042;-62
2023/05/18 00:51:09;;;;;;;10.05;3.78;;;;;;;;;;5032776;28;20026;-63
2023/05/18 00:53:35;;;;;;;10.07;3.20;;;;;;;;;;5032709;28;20497;-63
2023/05/18 00:56:01;;;;;;;9.27;2.60;;;;;;;;;;5032414;28;20022;-62
2023/05/18 00:58:27;;;;;;;11.25;2.40;;;;;;;;;;5032748;28;20025;-62
2023/05/18 01:00:53;;;;;;;10.10;2.47;;;;;;;;;;5031400;28;20061;-62
2023/05/18 01:03:20;;;;;;;12.85;2.83;;;;;;;;;;5032313;28;20037;-62
2023/05/18 01:05:48;;;;;;;7.07;2.30;;;;;;;;;;5032443;28;20025;-62
2023/05/18 01:08:15;;;;;;;7.72;1.80;;;;;;;;;;5032068;28;20079;-62
2023/05/18 01:10:42;;;;;;;12.02;2.10;;;;;;;;;;5032278;28;20025;-62
2023/05/18 01:13:24;;;;;;;10.18;2.00;;;;;;;;;;5032499;28;20040;-62
2023/05/18 01:15:56;;;;;;;7.60;1.60;;;;;;;;;;5032520;28;20659;-63
2023/05/18 01:18:35;;;;;;;9.15;2.10;;;;;;;;;;5032502;28;20021;-63
2023/05/18 01:21:09;;;;;;;7.97;1.55;;;;;;;;;;5032445;28;20049;-63
2023/05/18 01:24:14;;;;;;;10.15;2.00;;;;;;;;;;5018103;28;20040;-63
2023/05/18 01:26:44;;;;;;;4.30;1.73;;;;;;;;;;5030880;28;20035;-63
2023/05/18 01:29:12;;;;;;;7.63;1.90;;;;;;;;;;5032237;28;20383;-62
2023/05/18 01:31:38;;;;;;;7.85;1.85;;;;;;;;;;5032277;28;20013;-62
2023/05/18 01:34:04;;;;;;;8.63;1.88;;;;;;;;;;5030983;28;20025;-62
2023/05/18 01:36:30;;;;;;;8.52;1.92;;;;;;;;;;5032085;28;20029;-62
2023/05/18 01:39:00;;;;;;;10.00;2.33;;;;;;;;;;5032024;28;20387;-62
2023/05/18 01:41:29;;;;;;;8.63;2.30;;;;;;;;;;5031915;28;20026;-62
2023/05/18 01:44:17;;;;;;;16.48;3.13;;;;;;;;;;5031895;28;20049;-67
2023/05/18 01:46:56;;;;;;;11.30;1.90;;;;;;;;;;5032149;28;20029;-62
2023/05/18 01:49:21;;;;;;;9.23;2.08;;;;;;;;;;5032088;28;20030;-65
2023/05/18 01:51:48;;;;;;;12.23;3.72;;;;;;;;;;5032145;28;20070;-66
2023/05/18 01:54:17;;;;;;;10.40;2.30;;;;;;;;;;5031935;28;20037;-63
2023/05/18 01:56:44;;;;;;;9.18;1.90;;;;;;;;;;5032180;28;20021;-63
2023/05/18 01:59:11;;;;;;;8.93;2.10;;;;;;;;;;5032022;28;20025;-63
2023/05/18 02:01:36;;;;;;;6.95;1.90;;;;;;;;;;5032079;28;20057;-64
2023/05/18 02:04:07;;;;;;;6.47;2.20;;;;;;;;;;5031977;28;20407;-65
2023/05/18 02:06:32;;;;;;;11.70;2.40;;;;;;;;;;5031889;28;20110;-64
2023/05/18 02:08:57;;;;;;;8.57;2.38;;;;;;;;;;5031875;28;20110;-63
2023/05/18 02:11:23;;;;;;;5.65;2.20;;;;;;;;;;5031923;28;20018;-63
2023/05/18 02:13:48;;;;;;;9.18;2.22;;;;;;;;;;5031994;28;20083;-63
2023/05/18 02:16:14;;;;;;;7.10;2.67;;;;;;;;;;5031932;28;20017;-63
2023/05/18 02:18:39;;;;;;;12.93;2.25;;;;;;;;;;5031814;28;20506;-67
2023/05/18 02:21:04;;;;;;;14.05;2.28;;;;;;;;;;5033478;28;20063;-70
2023/05/18 02:23:30;;;;;;;13.57;1.90;;;;;;;;;;5035158;28;20037;-69
2023/05/18 02:25:55;;;;;;;7.25;1.90;;;;;;;;;;5035474;28;20414;-69
2023/05/18 02:28:21;;;;;;;6.13;2.00;;;;;;;;;;5035508;28;20426;-70
2023/05/18 02:30:47;;;;;;;11.63;1.88;;;;;;;;;;5055208;28;20124;-69
2023/05/18 02:33:12;;;;;;;12.25;2.00;;;;;;;;;;5055093;28;20539;-69
2023/05/18 02:35:39;;;;;;;7.35;1.95;;;;;;;;;;5054825;28;20110;-70
2023/05/18 02:38:05;;;;;;;7.95;2.10;;;;;;;;;;5035298;28;20426;-70
2023/05/18 02:40:32;;;;;;;11.05;2.85;;;;;;;;;;5034987;28;20033;-64
2023/05/18 02:42:57;;;;;;;8.07;2.50;;;;;;;;;;5035119;28;20030;-70
2023/05/18 02:45:23;;;;;;;9.45;2.22;;;;;;;;;;5034839;28;20050;-69
2023/05/18 02:47:48;;;;;;;12.63;2.25;;;;;;;;;;5035044;28;20037;-67
2023/05/18 02:50:14;;;;;;;12.93;2.13;;;;;;;;;;5035059;28;20558;-70
2023/05/18 02:52:40;;;;;;;7.05;1.90;;;;;;;;;;5034734;28;20459;-69
2023/05/18 02:55:06;;;;;;;8.18;2.53;;;;;;;;;;5034839;28;20072;-69
2023/05/18 02:57:32;;;;;;;6.60;1.88;;;;;;;;;;5034798;28;20114;-69
2023/05/18 02:59:58;;;;;;;8.98;1.90;;;;;;;;;;5034825;28;20420;-70
2023/05/18 03:02:23;;;;;;;15.15;2.40;;;;;;;;;;5034649;28;20113;-69
2023/05/18 03:04:52;;;;;;;16.50;2.35;;;;;;;;;;5034775;28;20036;-67
2023/05/18 03:07:19;;;;;;;8.95;2.08;;;;;;;;;;5034463;28;20033;-70
2023/05/18 03:09:45;;;;;;;3.60;1.70;;;;;;;;;;5034615;28;20112;-65
2023/05/18 03:12:11;;;;;;;8.90;2.17;;;;;;;;;;5034559;28;20535;-65
2023/05/18 03:14:36;;;;;;;6.32;1.92;;;;;;;;;;5034356;28;20091;-63
2023/05/18 03:17:04;;;;;;;6.63;1.70;;;;;;;;;;5034425;28;20431;-70
2023/05/18 03:19:31;;;;;;;5.60;1.67;;;;;;;;;;5034471;28;20099;-68
2023/05/18 03:21:56;;;;;;;6.93;1.90;;;;;;;;;;5034047;28;20022;-65
2023/05/18 03:24:25;;;;;;;9.75;2.30;;;;;;;;;;5034372;28;20525;-66
2023/05/18 03:26:53;;;;;;;8.90;2.40;;;;;;;;;;5034444;28;20025;-67
2023/05/18 03:29:20;;;;;;;9.55;2.13;;;;;;;;;;5034203;28;20025;-64
2023/05/18 03:31:45;;;;;;;10.10;1.80;;;;;;;;;;5033766;28;20086;-63
2023/05/18 03:34:11;;;;;;;20.52;3.63;;;;;;;;;;5034404;28;20029;-63
2023/05/18 03:36:37;;;;;;;13.13;2.72;;;;;;;;;;5033778;28;20467;-63
2023/05/18 03:39:04;;;;;;;14.73;6.90;;;;;;;;;;5034022;28;20475;-64
2023/05/18 03:41:30;;;;;;;6.93;2.30;;;;;;;;;;5033912;28;20498;-63
2023/05/18 03:43:56;;;;;;;11.07;2.53;;;;;;;;;;5033707;28;20084;-64
2023/05/18 03:46:22;;;;;;;6.47;1.70;;;;;;;;;;5034040;28;20116;-65
2023/05/18 03:48:47;;;;;;;10.75;2.08;;;;;;;;;;5033940;28;20379;-64
2023/05/18 03:51:13;;;;;;;7.07;1.98;;;;;;;;;;5033662;28;20032;-63
2023/05/18 03:53:39;;;;;;;9.02;2.72;;;;;;;;;;5033881;28;20029;-63
2023/05/18 03:56:05;;;;;;;10.80;2.72;;;;;;;;;;5033782;28;20368;-63
2023/05/18 03:58:30;;;;;;;9.50;2.15;;;;;;;;;;5033677;28;20032;-63
2023/05/18 04:00:57;;;;;;;5.95;2.20;;;;;;;;;;5033814;28;20487;-64
2023/05/18 04:03:23;;;;;;;11.75;2.85;;;;;;;;;;5033436;28;20047;-65
2023/05/18 04:05:50;;;;;;;11.52;2.22;;;;;;;;;;5033259;28;20474;-64
2023/05/18 04:08:16;;;;;;;8.85;2.22;;;;;;;;;;5033547;28;20034;-63
2023/05/18 04:10:42;;;;;;;9.68;1.90;;;;;;;;;;5033604;28;20036;-63
2023/05/18 04:13:07;;;;;;;7.82;1.65;;;;;;;;;;5033475;28;20043;-63
2023/05/18 04:15:33;;;;;;;7.65;1.88;;;;;;;;;;5033305;28;20470;-64
2023/05/18 04:18:00;;;;;;;11.55;2.47;;;;;;;;;;5033306;28;20486;-64
2023/05/18 04:20:27;;;;;;;6.47;1.73;;;;;;;;;;5033191;28;20471;-65
2023/05/18 04:22:52;;;;;;;9.73;2.03;;;;;;;;;;5033155;28;20036;-63
2023/05/18 04:25:19;;;;;;;11.98;2.00;;;;;;;;;;5033099;28;20395;-64
2023/05/18 04:27:45;;;;;;;9.30;1.90;;;;;;;;;;5032984;28;20082;-63
2023/05/18 04:30:11;;;;;;;9.25;2.17;;;;;;;;;;5033143;28;20029;-65
2023/05/18 04:32:37;;;;;;;7.82;2.30;;;;;;;;;;5033079;28;20030;-63
2023/05/18 04:35:06;;;;;;;8.82;1.77;;;;;;;;;;5032776;28;20025;-63
2023/05/18 04:37:39;;;;;;;8.52;2.30;;;;;;;;;;5032682;28;20038;-63
2023/05/18 04:40:06;;;;;;;8.25;1.80;;;;;;;;;;5033023;28;20033;-65
2023/05/18 04:42:35;;;;;;;9.38;2.70;;;;;;;;;;5032547;28;20025;-64
2023/05/18 04:45:01;;;;;;;10.93;2.10;;;;;;;;;;5032238;28;20045;-63
2023/05/18 04:47:28;;;;;;;5.00;2.05;;;;;;;;;;5032896;28;20024;-70
2023/05/18 04:49:54;;;;;;;8.50;1.80;;;;;;;;;;5032530;28;20025;-64
2023/05/18 04:52:20;;;;;;;11.35;3.25;;;;;;;;;;5032719;28;20030;-63
2023/05/18 04:54:46;;;;;;;12.18;1.83;;;;;;;;;;5032792;28;20029;-63
2023/05/18 04:57:12;;;;;;;14.10;1.90;;;;;;;;;;5032495;28;20031;-64
2023/05/18 04:59:38;;;;;;;8.13;2.53;;;;;;;;;;5031365;28;20394;-63
2023/05/18 05:02:03;;;;;;;8.50;2.10;;;;;;;;;;5032729;28;20021;-64
2023/05/18 05:04:29;;;;;;;7.43;2.00;;;;;;;;;;5032339;28;20475;-70
2023/05/18 05:06:55;;;;;;;7.07;1.80;;;;;;;;;;5031318;28;20025;-63
2023/05/18 05:09:20;;;;;;;9.32;2.30;;;;;;;;;;5032420;28;20423;-65
2023/05/18 05:11:46;;;;;;;7.18;2.10;;;;;;;;;;5032599;28;20030;-65
2023/05/18 05:14:11;;;;;;;12.75;3.00;;;;;;;;;;5032522;28;20056;-63
2023/05/18 05:16:37;;;;;;;9.38;2.42;;;;;;;;;;5032443;28;20367;-64
2023/05/18 05:19:03;;;;;;;10.00;2.90;;;;;;;;;;5032200;28;20486;-66
2023/05/18 05:21:28;;;;;;;17.45;2.65;;;;;;;;;;5032178;28;20025;-63
2023/05/18 05:23:54;;;;;;;7.93;2.08;;;;;;;;;;5032268;28;20033;-67
2023/05/18 05:26:20;;;;;;;6.85;2.20;;;;;;;;;;5032300;28;20533;-65
2023/05/18 05:28:46;;;;;;;13.23;2.83;;;;;;;;;;5032531;28;20041;-65
2023/05/18 05:31:11;;;;;;;13.68;2.60;;;;;;;;;;5030928;28;20383;-66
2023/05/18 05:33:37;;;;;;;11.30;2.72;;;;;;;;;;5032187;28;20026;-64
2023/05/18 05:36:04;;;;;;;10.57;2.22;;;;;;;;;;5032037;28;20133;-63
2023/05/18 05:38:30;;;;;;;15.40;2.80;;;;;;;;;;5031916;28;20033;-71
2023/05/18 05:40:56;;;;;;;8.15;2.20;;;;;;;;;;5032144;28;20079;-70
2023/05/18 05:43:21;;;;;;;9.13;2.45;;;;;;;;;;5031881;28;20081;-70
2023/05/18 05:45:46;;;;;;;11.63;2.30;;;;;;;;;;5032011;28;20033;-67
2023/05/18 05:48:12;;;;;;;9.88;2.35;;;;;;;;;;5032187;28;20082;-70
2023/05/18 05:50:37;;;;;;;9.23;2.45;;;;;;;;;;5032099;28;20033;-70
2023/05/18 05:53:03;;;;;;;15.00;2.40;;;;;;;;;;5032024;28;20073;-70
2023/05/18 05:55:28;;;;;;;11.68;2.88;;;;;;;;;;5034451;28;20429;-68
2023/05/18 05:57:53;;;;;;;13.77;2.90;;;;;;;;;;5035959;28;20120;-67
2023/05/18 06:00:19;;;;;;;11.50;2.85;;;;;;;;;;5035666;28;20467;-69
2023/05/18 06:02:45;;;;;;;10.43;2.65;;;;;;;;;;5035777;28;20080;-70
2023/05/18 06:05:10;;;;;;;9.73;1.88;;;;;;;;;;5035662;28;20026;-70
2023/05/18 06:07:36;;;;;;;8.07;1.90;;;;;;;;;;5035916;28;20025;-68
2023/05/18 06:10:02;;;;;;;6.18;1.95;;;;;;;;;;5035685;28;20033;-69
2023/05/18 06:12:27;;;;;;;10.68;2.35;;;;;;;;;;5035555;28;20024;-70
2023/05/18 06:14:57;;;;;;;10.18;2.58;;;;;;;;;;5035378;28;20109;-69
2023/05/18 06:17:26;;;;;;;16.10;2.47;;;;;;;;;;5015634;28;20033;-68
2023/05/18 06:19:53;;;;;;;14.23;2.22;;;;;;;;;;5015808;28;20026;-69
2023/05/18 06:22:18;;;;;;;13.20;2.40;;;;;;;;;;5035086;28;20428;-67
2023/05/18 06:24:44;;;;;;;9.82;2.47;;;;;;;;;;5035417;28;20060;-68
2023/05/18 06:27:10;;;;;;;9.45;2.30;;;;;;;;;;5035397;28;20065;-69
2023/05/18 06:29:35;;;;;;;11.32;2.40;;;;;;;;;;5035077;28;20034;-69
2023/05/18 06:32:01;;;;;;;12.75;2.28;;;;;;;;;;5035128;28;20039;-64
2023/05/18 06:34:26;;;;;;;8.93;2.35;;;;;;;;;;5035417;28;20087;-68
2023/05/18 06:36:52;;;;;;;10.85;2.55;;;;;;;;;;5040992;28;20539;-69
2023/05/18 06:39:17;;;;;;;9.43;2.10;;;;;;;;;;5034980;28;20467;-68
2023/05/18 06:41:44;;;;;;;8.20;2.13;;;;;;;;;;5035272;28;20068;-66
2023/05/18 06:44:10;;;;;;;7.65;2.05;;;;;;;;;;5034639;28;20042;-68
2023/05/18 06:46:35;;;;;;;7.97;1.80;;;;;;;;;;5035247;28;20029;-68
2023/05/18 06:49:01;;;;;;;5.30;1.80;;;;;;;;;;5035015;28;20025;-66
2023/05/18 06:51:26;;;;;;;12.93;2.40;;;;;;;;;;5034974;28;20083;-65
2023/05/18 06:53:52;;;;;;;10.68;2.30;;;;;;;;;;5034972;28;20029;-70
2023/05/18 06:56:17;;;;;;;9.27;1.85;;;;;;;;;;5034741;28;20382;-67
2023/05/18 06:58:43;;;;;;;9.82;1.92;;;;;;;;;;5034684;28;20029;-69
2023/05/18 07:01:09;;;;;;;9.45;2.72;;;;;;;;;;5032853;28;20112;-68
2023/05/18 07:03:36;;;;;;;10.40;1.70;;;;;;;;;;5034543;28;20030;-68
2023/05/18 07:06:03;;;;;;;7.30;1.88;;;;;;;;;;5040072;28;20025;-66
2023/05/18 07:08:29;;;;;;;11.15;2.13;;;;;;;;;;5054447;28;20455;-68
2023/05/18 07:10:56;;;;;;;10.15;2.15;;;;;;;;;;5054111;28;20056;-68
2023/05/18 07:13:22;;;;;;;5.57;1.60;;;;;;;;;;5054176;28;20037;-68
2023/05/18 07:15:48;;;;;;;6.95;2.03;;;;;;;;;;5029840;28;20040;-65
2023/05/18 07:18:13;;;;;;;11.75;1.80;;;;;;;;;;5032772;28;20483;-68
2023/05/18 07:20:39;;;;;;;7.95;1.80;;;;;;;;;;5037007;28;20087;-68
2023/05/18 07:23:04;;;;;;;11.15;2.03;;;;;;;;;;5037284;28;20034;-65
2023/05/18 07:25:30;;;;;;;10.38;2.15;;;;;;;;;;5034421;28;20394;-69
2023/05/18 07:27:55;;;;;;;7.80;1.80;;;;;;;;;;5034199;28;20060;-72
2023/05/18 07:30:21;;;;;;;11.40;1.70;;;;;;;;;;5033045;28;20025;-67
2023/05/18 07:32:47;;;;;;;10.55;1.70;;;;;;;;;;5034259;28;20156;-70
2023/05/18 07:35:13;;;;;;;7.60;1.60;;;;;;;;;;5034233;28;20523;-68
2023/05/18 07:37:38;;;;;;;4.45;1.30;;;;;;;;;;5033925;28;20052;-65
2023/05/18 07:40:04;;;;;;;8.50;1.52;;;;;;;;;;5034339;28;20033;-64
2023/05/18 07:42:32;;;;;;;7.70;1.60;;;;;;;;;;5033732;28;20027;-64
2023/05/18 07:44:58;;;;;;;7.05;1.40;;;;;;;;;;5033916;28;20038;-62
2023/05/18 07:47:23;;;;;;;10.68;1.70;;;;;;;;;;5034082;28;20467;-65
2023/05/18 07:49:49;;;;;;;7.15;1.70;;;;;;;;;;5034019;28;20034;-63
2023/05/18 07:52:14;;;;;;;7.75;2.33;;;;;;;;;;5033817;28;20037;-63
2023/05/18 07:54:40;;;;;;;8.98;2.00;;;;;;;;;;5033633;28;20025;-63
2023/05/18 07:57:05;;;;;;;7.95;1.80;;;;;;;;;;5033500;28;20036;-63
2023/05/18 07:59:31;;;;;;;11.45;1.80;;;;;;;;;;5033900;28;20065;-65
2023/05/18 08:01:57;;;;;;;8.88;1.77;;;;;;;;;;5033713;28;20053;-63
2023/05/18 08:04:23;;;;;;;5.78;1.40;;;;;;;;;;5033338;28;20466;-62
2023/05/18 08:06:49;;;;;;;11.23;2.10;;;;;;;;;;5033791;28;20053;-64
2023/05/18 08:09:14;;;;;;;10.07;2.22;;;;;;;;;;5033430;28;20029;-61
2023/05/18 08:11:41;;;;;;;7.05;1.60;;;;;;;;;;5033478;28;20549;-64
2023/05/18 08:14:06;;;;;;;6.68;1.65;;;;;;;;;;5033524;28;20071;-69
2023/05/18 08:16:35;;;;;;;8.55;2.20;;;;;;;;;;5033408;28;20030;-62
2023/05/18 08:19:02;;;;;;;4.18;1.38;;;;;;;;;;5033277;28;20104;-65
2023/05/18 08:21:28;;;;;;;5.70;1.20;;;;;;;;;;5033470;28;20078;-64
2023/05/18 08:23:54;;;;;;;5.25;2.05;;;;;;;;;;5033281;28;20478;-61
2023/05/18 08:26:19;;;;;;;4.05;1.33;;;;;;;;;;5032880;28;20161;-62
2023/05/18 08:28:44;;;;;;;6.47;1.17;;;;;;;;;;5033266;28;20375;-62
2023/05/18 08:31:11;;;;;;;5.72;1.48;;;;;;;;;;5033099;28;20479;-65
2023/05/18 08:33:37;;;;;;;4.85;1.42;;;;;;;;;;5033373;28;20387;-62
2023/05/18 08:36:03;;;;;;;7.57;1.58;;;;;;;;;;5032822;28;20057;-63
2023/05/18 08:38:30;;;;;;;6.78;1.67;;;;;;;;;;5032841;28;20037;-63
2023/05/18 08:41:21;;;;;;;3.60;1.20;;;;;;;;;;5032717;28;20036;-63
2023/05/18 08:43:54;;;;;;;8.07;1.70;;;;;;;;;;5032790;28;20121;-64
2023/05/18 08:46:30;;;;;;;5.55;1.85;;;;;;;;;;5032961;28;20129;-63
2023/05/18 08:48:57;;;;;;;6.80;2.00;;;;;;;;;;5032886;28;20071;-63
2023/05/18 08:51:25;;;;;;;7.95;1.30;;;;;;;;;;5032828;28;20022;-62
2023/05/18 08:53:52;;;;;;;8.30;1.70;;;;;;;;;;5032770;28;20013;-65
2023/05/18 08:56:21;;;;;;;9.70;2.40;;;;;;;;;;5033808;28;20414;-69
2023/05/18 08:58:49;;;;;;;8.30;1.70;;;;;;;;;;5051425;28;20379;-68
2023/05/18 09:01:15;;;;;;;6.80;1.75;;;;;;;;;;5052332;28;20033;-71
2023/05/18 09:03:41;;;;;;;6.85;2.00;;;;;;;;;;5051316;28;20064;-71
2023/05/18 09:06:06;;;;;;;8.80;1.90;;;;;;;;;;5051671;28;20196;-71
2023/05/18 09:08:32;;;;;;;6.32;1.92;;;;;;;;;;5039966;28;20499;-69
2023/05/18 09:11:00;;;;;;;7.82;2.00;;;;;;;;;;5032339;28;20067;-70
2023/05/18 09:13:26;;;;;;;7.45;2.40;;;;;;;;;;5034795;28;20046;-71
2023/05/18 09:15:52;;;;;;;7.80;2.50;;;;;;;;;;5032584;28;20029;-69
2023/05/18 09:18:17;;;;;;;8.32;2.60;;;;;;;;;;5032520;28;20111;-68
2023/05/18 09:20:44;;;;;;;6.93;2.80;;;;;;;;;;5032381;28;20022;-67
2023/05/18 09:23:10;;;;;;;7.75;2.70;;;;;;;;;;5032130;28;20056;-68
2023/05/18 09:25:43;;;;;;;11.38;2.92;;;;;;;;;;5032097;28;20040;-70
2023/05/18 09:28:10;;;;;;;7.70;2.95;;;;;;;;;;5032278;28;20171;-69
2023/05/18 09:30:41;;;;;;;15.70;3.10;;;;;;;;;;5037610;28;20040;-61
2023/05/18 09:33:15;;;;;;;;;;;;;;;;;;5039338;28;20040;-61
2023/05/18 09:35:41;;;;;;;7.32;2.88;;;;;;;;;;5039115;28;19935;-62
2023/05/18 09:38:07;;;;;;;6.65;2.75;;;;;;;;;;5038572;28;20474;-64
2023/05/18 09:40:33;;;;;;;8.85;3.00;;;;;;;;;;5037628;28;20121;-69
2023/05/18 09:43:05;;;;;;;8.52;2.92;;;;;;;;;;5038715;28;20124;-70
2023/05/18 09:45:31;;;;;;;6.55;2.70;;;;;;;;;;5038995;28;20355;-64
2023/05/18 09:47:56;;;;;;;6.70;2.70;;;;;;;;;;5038739;28;20024;-63
2023/05/18 09:50:23;;;;;;;8.13;2.92;;;;;;;;;;5038589;28;20560;-62
2023/05/18 09:52:49;;;;;;;11.05;2.75;;;;;;;;;;5038537;28;20087;-63
2023/05/18 09:55:16;;;;;;;9.32;3.15;;;;;;;;;;5038554;28;20147;-63
2023/05/18 09:57:46;;;;;;;11.18;4.20;;;;;;;;;;5049475;28;20035;-69
2023/05/18 10:00:17;;;;;;;8.50;3.92;;;;;;;;;;5057425;28;20096;-69
2023/05/18 10:02:50;;;;;;;7.85;3.75;;;;;;;;;;5058315;28;20116;-69
2023/05/18 10:05:29;;;;;;;6.75;3.55;;;;;;;;;;5058368;28;20494;-69
2023/05/18 10:07:55;;;;;;;13.80;5.45;;;;;;;;;;5058066;28;20462;-63
2023/05/18 10:10:27;;;;;;;10.90;5.05;;;;;;;;;;5058607;28;20487;-62
2023/05/18 10:12:54;;;;;;;10.50;4.55;;;;;;;;;;5058336;28;20052;-63
2023/05/18 10:15:22;;;;;;;9.85;4.43;;;;;;;;;;5058358;28;20063;-62
2023/05/18 10:17:49;;;;;;;10.48;4.55;;;;;;;;;;5058305;28;20032;-62
2023/05/18 10:20:19;;;;;;;8.75;4.80;;;;;;;;;;5058401;28;20261;-63
2023/05/18 10:22:47;;;;;;;8.73;4.40;;;;;;;;;;5044079;28;20029;-63
2023/05/18 10:25:21;;;;;;;10.70;4.70;;;;;;;;;;5038289;28;20033;-63
2023/05/18 10:27:55;;;;;;;7.00;4.20;;;;;;;;;;5038254;28;20128;-63
2023/05/18 10:30:21;;;;;;;11.23;4.32;;;;;;;;;;5038379;28;20017;-62
2023/05/18 10:32:48;;;;;;;9.75;4.10;;;;;;;;;;5038735;28;20139;-62
2023/05/18 10:35:15;;;;;;;7.90;3.90;;;;;;;;;;5038099;28;20036;-63
2023/05/18 10:37:46;;;;;;;8.55;4.40;;;;;;;;;;5037910;28;20033;-62
2023/05/18 10:40:13;;;;;;;9.20;4.68;;;;;;;;;;5038038;28;20029;-62
2023/05/18 10:42:39;;;;;;;12.60;4.45;;;;;;;;;;5033876;28;20477;-62
2023/05/18 10:45:08;;;;;;;9.65;4.50;;;;;;;;;;5034912;28;20072;-63
2023/05/18 10:47:38;;;;;;;8.10;4.00;;;;;;;;;;5035119;28;20036;-66
2023/05/18 10:50:04;;;;;;;11.98;3.75;;;;;;;;;;5035071;28;20080;-64
2023/05/18 10:52:31;;;;;;;7.57;3.72;;;;;;;;;;5034786;28;20037;-63
2023/05/18 10:54:59;;;;;;;9.13;3.95;;;;;;;;;;5034821;28;20045;-65
2023/05/18 10:57:31;;;;;;;8.05;3.63;;;;;;;;;;5040192;28;20033;-63
2023/05/18 10:59:57;;;;;;;11.30;4.40;;;;;;;;;;5054848;28;20029;-63
2023/05/18 11:02:23;;;;;;;9.13;3.60;;;;;;;;;;5054412;28;20381;-62
2023/05/18 11:04:49;;;;;;;8.48;4.03;;;;;;;;;;5054459;28;20107;-62
2023/05/18 11:07:15;;;;;;;8.68;3.53;;;;;;;;;;5054515;28;20040;-64
2023/05/18 11:09:42;;;;;;;10.82;4.82;;;;;;;;;;5054689;28;20021;-63
2023/05/18 11:12:12;;;;;;;8.93;4.10;;;;;;;;;;5054376;28;20039;-63
2023/05/18 11:14:48;;;;;;;11.95;4.25;;;;;;;;;;5054631;28;20474;-63
2023/05/18 11:17:15;;;;;;;7.78;1.90;;;;;;;;;;5054164;28;20036;-63
2023/05/18 11:20:00;;;;;;;8.55;1.75;;;;;;;;;;5054274;28;20035;-64
2023/05/18 11:22:57;;;;;;;6.65;1.77;;;;;;;;;;5042704;28;20026;-63
2023/05/18 11:25:25;;;;;;;2.78;1.23;;;;;;;;;;5034351;28;20067;-63
2023/05/18 11:28:12;;;;;;;3.95;1.40;;;;;;;;;;5034675;28;20426;-63
2023/05/18 11:30:40;;;;;;;4.78;1.40;;;;;;;;;;5034498;28;20029;-64
2023/05/18 11:33:29;;;;;;;4.47;1.50;;;;;;;;;;5034496;28;20033;-63
2023/05/18 11:36:11;;;;;;;8.77;2.20;;;;;;;;;;5034061;28;20482;-66
2023/05/18 11:39:05;;;;;;;4.93;2.35;;;;;;;;;;5037558;28;20115;-63
2023/05/18 11:41:31;;;;;;;9.02;2.33;;;;;;;;;;5034397;28;20025;-69
2023/05/18 11:44:15;;;;;;;8.45;2.40;;;;;;;;;;5033958;28;20071;-63
2023/05/18 11:46:50;;;;;;;5.03;1.40;;;;;;;;;;5034278;28;20068;-63
2023/05/18 11:49:16;;;;;;;4.90;1.60;;;;;;;;;;5033677;28;20099;-64
2023/05/18 11:52:15;;;;;;;6.38;1.33;;;;;;;;;;5033840;28;20101;-63
2023/05/18 11:54:51;;;;;;;6.43;1.30;;;;;;;;;;5033748;28;20033;-63
2023/05/18 11:57:19;;;;;;;3.75;1.20;;;;;;;;;;5034452;28;20029;-63
2023/05/18 11:59:53;;;;;;;3.28;1.20;;;;;;;;;;5053797;28;20025;-62
2023/05/18 12:02:21;;;;;;;6.78;1.30;;;;;;;;;;5053384;28;20075;-63
2023/05/18 12:04:49;;;;;;;5.55;1.48;;;;;;;;;;5053452;28;20031;-64
2023/05/18 12:07:17;;;;;;;6.90;1.90;;;;;;;;;;5053100;28;20064;-63
2023/05/18 12:09:44;;;;;;;7.07;1.42;;;;;;;;;;5013775;28;20125;-62
2023/05/18 12:12:11;;;;;;;6.90;1.50;;;;;;;;;;5013699;28;20040;-64
2023/05/18 12:14:46;;;;;;;4.28;1.08;;;;;;;;;;5032554;28;20033;-63
2023/05/18 12:17:12;;;;;;;9.55;1.40;;;;;;;;;;5033093;28;20078;-64
2023/05/18 12:19:43;;;;;;;7.43;1.60;;;;;;;;;;5033263;28;20029;-63
2023/05/18 12:22:09;;;;;;;;;;;;;;;;;;5033666;28;20418;-66
2023/05/18 12:24:35;;;;;;;4.32;1.52;;;;;;;;;;5033122;28;19956;-63
2023/05/18 12:27:03;;;;;;;4.40;1.65;;;;;;;;;;5033312;28;20029;-64
2023/05/18 12:29:29;;;;;;;8.85;1.60;;;;;;;;;;5033332;28;20036;-63
2023/05/18 12:31:55;;;;;;;2.97;1.17;;;;;;;;;;5032985;28;20026;-63
2023/05/18 12:34:20;;;;;;;4.70;1.23;;;;;;;;;;5033003;28;20029;-69
2023/05/18 12:36:53;;;;;;;10.27;1.48;;;;;;;;;;5033019;28;20022;-68
2023/05/18 12:39:19;;;;;;;4.15;1.50;;;;;;;;;;5032848;28;20047;-68
2023/05/18 12:41:44;;;;;;;5.57;1.50;;;;;;;;;;5033016;28;20067;-70
2023/05/18 12:44:10;;;;;;;7.25;1.80;;;;;;;;;;5032477;28;20046;-68
2023/05/18 12:46:35;;;;;;;4.45;1.27;;;;;;;;;;5032544;28;20056;-70
2023/05/18 12:49:03;;;;;;;5.25;1.15;;;;;;;;;;5032741;28;20052;-69
2023/05/18 12:51:32;;;;;;;3.63;1.20;;;;;;;;;;5032784;28;20383;-63
2023/05/18 12:53:58;;;;;;;6.38;1.35;;;;;;;;;;5032213;28;20168;-69
2023/05/18 12:56:27;;;;;;;10.63;1.58;;;;;;;;;;5032540;28;20105;-70
2023/05/18 12:58:59;;;;;;;4.20;1.05;;;;;;;;;;5042895;28;20056;-70
2023/05/18 13:01:25;;;;;;;9.02;2.30;;;;;;;;;;5052364;28;20021;-69
2023/05/18 13:03:57;;;;;;;5.68;2.00;;;;;;;;;;5051638;28;20506;-68
2023/05/18 13:06:24;;;;;;;6.93;1.40;;;;;;;;;;5052319;28;20028;-68
2023/05/18 13:08:53;;;;;;;5.93;1.33;;;;;;;;;;5052209;28;20378;-68
2023/05/18 13:11:23;;;;;;;4.83;1.50;;;;;;;;;;5052228;28;20021;-68
2023/05/18 13:13:59;;;;;;;6.35;1.55;;;;;;;;;;5052094;28;20120;-68
2023/05/18 13:16:26;;;;;;;6.03;1.88;;;;;;;;;;5040092;28;20025;-66
2023/05/18 13:18:56;;;;;;;5.72;1.60;;;;;;;;;;5044192;28;20040;-69
2023/05/18 13:21:21;;;;;;;2.95;1.05;;;;;;;;;;5040830;28;20111;-65
2023/05/18 13:23:46;;;;;;;5.13;1.30;;;;;;;;;;5032551;28;20574;-64
2023/05/18 13:26:12;;;;;;;7.05;1.38;;;;;;;;;;5044934;28;20032;-63
2023/05/18 13:28:38;;;;;;;5.00;1.38;;;;;;;;;;5039030;28;20367;-65
2023/05/18 13:31:03;;;;;;;5.45;1.50;;;;;;;;;;5051839;28;20029;-68
2023/05/18 13:33:29;;;;;;;3.38;1.10;;;;;;;;;;5051868;28;20056;-66
2023/05/18 13:35:54;;;;;;;5.82;1.45;;;;;;;;;;5050850;28;20025;-63
2023/05/18 13:38:20;;;;;;;9.70;1.60;;;;;;;;;;5031985;28;20029;-69
2023/05/18 13:40:45;;;;;;;10.65;1.60;;;;;;;;;;5032052;28;20032;-70
2023/05/18 13:43:11;;;;;;;6.75;1.40;;;;;;;;;;5031808;28;20034;-69
2023/05/18 13:45:37;;;;;;;5.32;1.20;;;;;;;;;;5031947;28;20056;-63
2023/05/18 13:48:05;;;;;;;7.78;1.45;;;;;;;;;;5030214;28;20099;-66
2023/05/18 13:50:32;;;;;;;15.18;1.77;;;;;;;;;;5032034;28;20025;-63
2023/05/18 13:52:57;;;;;;;6.90;1.58;;;;;;;;;;5034439;28;20025;-65
2023/05/18 13:55:23;;;;;;;8.35;1.58;;;;;;;;;;5037782;28;20475;-63
2023/05/18 13:57:48;;;;;;;7.35;2.05;;;;;;;;;;5032115;28;20075;-61
2023/05/18 14:00:15;;;;;;;6.05;2.05;;;;;;;;;;5031934;28;20056;-63
2023/05/18 14:02:43;;;;;;;7.85;1.70;;;;;;;;;;5031865;28;20433;-66
2023/05/18 14:05:10;;;;;;;6.32;1.83;;;;;;;;;;5031762;28;20026;-67
2023/05/18 14:07:39;;;;;;;5.93;1.38;;;;;;;;;;5031708;28;20398;-64
2023/05/18 14:10:07;;;;;;;4.65;1.40;;;;;;;;;;5032034;28;20030;-63
2023/05/18 14:12:32;;;;;;;8.23;2.20;;;;;;;;;;5031840;28;20117;-69
2023/05/18 14:14:58;;;;;;;8.00;2.97;;;;;;;;;;5031699;28;20030;-68
2023/05/18 14:17:26;;;;;;;8.20;2.40;;;;;;;;;;5035732;28;20030;-68
2023/05/18 14:19:51;;;;;;;7.53;2.28;;;;;;;;;;5035608;28;20029;-68
2023/05/18 14:22:17;;;;;;;5.05;1.40;;;;;;;;;;5035317;28;20032;-64
2023/05/18 14:24:43;;;;;;;4.63;1.60;;;;;;;;;;5035243;28;20033;-63
2023/05/18 14:27:08;;;;;;;6.30;1.30;;;;;;;;;;5035283;28;20026;-64
2023/05/18 14:29:34;;;;;;;7.05;1.40;;;;;;;;;;5033988;28;20543;-65
2023/05/18 14:31:59;;;;;;;5.15;1.30;;;;;;;;;;5035397;28;20459;-64
2023/05/18 14:34:25;;;;;;;5.55;1.60;;;;;;;;;;5034934;28;20037;-65
2023/05/18 14:36:51;;;;;;;7.78;2.00;;;;;;;;;;5035239;28;20037;-63
2023/05/18 14:39:17;;;;;;;7.45;1.50;;;;;;;;;;5034938;28;20037;-64
2023/05/18 14:41:43;;;;;;;7.10;1.45;;;;;;;;;;5034941;28;20026;-63
2023/05/18 14:44:09;;;;;;;8.35;2.10;;;;;;;;;;5033136;28;20060;-63